Georgia Highway — 7JCV — position and weather

sailwx.info

Track history (hours):
 
Tides and Currents Weather Stations Pressure Air Temp Water Temp Dewpoint Dewpoint Depression Visibility Wind Speed Wind Dir Waves Ship Positions

Georgia Highway

Last reported at 2015-Mar-29 04:32 UTC. Time now 2015-Mar-29 06:10 UTC.
Position N 23°01' E 113°32'.

Length 199 m; draft 9.3 m.

Type: Ship. MMSI: 432629000.

Date/timePositionNaut miles runAvg speedWind from/ knotsBaromVisibWave heightAir tempDewpointWater temp
2015-Mar-29 04:32N 23°01' E 113°32'7 6.7
2015-Mar-29 03:33N 22°55' E 113°34'10 9.7
2015-Mar-29 02:33N 22°46' E 113°39'2612.7
2015-Mar-29 00:33N 22°22' E 113°47'1212.1
2015-Mar-28 23:33N 22°09' E 113°47'6 4.9
2015-Mar-28 22:19N 22°05' E 113°52'0 0.0
2015-Mar-28 20:06N 22°05' E 113°52'0 0.0
2015-Mar-28 18:30N 22°05' E 113°52'0 0.0
2015-Mar-28 17:18N 22°05' E 113°52'0 0.0
2015-Mar-28 16:24N 22°05' E 113°52'0 0.0
2015-Mar-28 14:24N 22°05' E 113°52'0 0.0
2015-Mar-28 13:27N 22°05' E 113°52'0 0.0
2015-Mar-28 12:33N 22°05' E 113°52'  
2015-Mar-24 09:33N 01°15' E 104°04'1010.2
2015-Mar-24 08:34N 01°15' E 103°54'0 0.1
2015-Mar-24 07:32N 01°16' E 103°54'0 0.0
2015-Mar-24 06:26N 01°16' E 103°54'0 0.0
2015-Mar-24 05:20N 01°16' E 103°54'0 0.1
2015-Mar-24 04:14N 01°16' E 103°54'0 0.1
2015-Mar-24 03:32N 01°16' E 103°54'0 0.0
2015-Mar-24 02:14N 01°16' E 103°54'0 0.0
2015-Mar-24 01:08N 01°16' E 103°54'0 0.1
2015-Mar-24 00:26N 01°16' E 103°54'1 1.2
2015-Mar-23 23:33N 01°15' E 103°53'8 1.1
2015-Mar-23 16:07N 01°17' E 103°45'0 0.0
2015-Mar-23 15:31N 01°17' E 103°45'0 0.1
2015-Mar-23 14:34N 01°17' E 103°45'5 5.0
2015-Mar-23 13:33N 01°13' E 103°42'59 8.2
2015-Mar-23 06:25N 01°38' E 102°48'1315.3
2015-Mar-23 05:33N 01°43' E 102°36'1715.7
2015-Mar-23 04:29N 01°50' E 102°21'  
Track history (hours):
 
Tides and Currents Weather Stations Pressure Air Temp Water Temp Dewpoint Dewpoint Depression Visibility Wind Speed Wind Dir Waves Ship Positions

Georgia Highway

Last reported at 2015-Mar-29 04:32 UTC. Time now 2015-Mar-29 06:10 UTC.
Position N 23°01' E 113°32'.

Length 199 m; draft 9.3 m.

Type: Ship. MMSI: 432629000.

Date/timePositionNaut miles runAvg speedWind from/ knotsBaromVisibWave heightAir tempDewpointWater temp
2015-Mar-29 04:32N 23°01' E 113°32'7 6.7
2015-Mar-29 03:33N 22°55' E 113°34'10 9.7
2015-Mar-29 02:33N 22°46' E 113°39'2612.7
2015-Mar-29 00:33N 22°22' E 113°47'1212.1
2015-Mar-28 23:33N 22°09' E 113°47'6 4.9
2015-Mar-28 22:19N 22°05' E 113°52'0 0.0
2015-Mar-28 20:06N 22°05' E 113°52'0 0.0
2015-Mar-28 18:30N 22°05' E 113°52'0 0.0
2015-Mar-28 17:18N 22°05' E 113°52'0 0.0
2015-Mar-28 16:24N 22°05' E 113°52'0 0.0
2015-Mar-28 14:24N 22°05' E 113°52'0 0.0
2015-Mar-28 13:27N 22°05' E 113°52'0 0.0
2015-Mar-28 12:33N 22°05' E 113°52'  
2015-Mar-24 09:33N 01°15' E 104°04'1010.2
2015-Mar-24 08:34N 01°15' E 103°54'0 0.1
2015-Mar-24 07:32N 01°16' E 103°54'0 0.0
2015-Mar-24 06:26N 01°16' E 103°54'0 0.0
2015-Mar-24 05:20N 01°16' E 103°54'0 0.1
2015-Mar-24 04:14N 01°16' E 103°54'0 0.1
2015-Mar-24 03:32N 01°16' E 103°54'0 0.0
2015-Mar-24 02:14N 01°16' E 103°54'0 0.0
2015-Mar-24 01:08N 01°16' E 103°54'0 0.1
2015-Mar-24 00:26N 01°16' E 103°54'1 1.2
2015-Mar-23 23:33N 01°15' E 103°53'8 1.1
2015-Mar-23 16:07N 01°17' E 103°45'0 0.0
2015-Mar-23 15:31N 01°17' E 103°45'0 0.1
2015-Mar-23 14:34N 01°17' E 103°45'5 5.0
2015-Mar-23 13:33N 01°13' E 103°42'59 8.2
2015-Mar-23 06:25N 01°38' E 102°48'1315.3
2015-Mar-23 05:33N 01°43' E 102°36'1715.7
2015-Mar-23 04:29N 01°50' E 102°21'  

Dump ship's entire track history